sensor_id;sensor_type;location;lat;lon;timestamp;P1;durP1;ratioP1;P2;durP2;ratioP2
64297;SDS011;50639;53.270;7.956;2023-02-14T00:01:30;62.13;;;20.92;;
64297;SDS011;50639;53.270;7.956;2023-02-14T00:03:56;67.75;;;20.75;;
64297;SDS011;50639;53.270;7.956;2023-02-14T00:06:24;25.67;;;17.02;;
64297;SDS011;50639;53.270;7.956;2023-02-14T00:08:50;25.77;;;18.13;;
64297;SDS011;50639;53.270;7.956;2023-02-14T00:11:18;24.42;;;15.40;;
64297;SDS011;50639;53.270;7.956;2023-02-14T00:13:44;42.78;;;22.35;;
64297;SDS011;50639;53.270;7.956;2023-02-14T00:16:30;22.08;;;13.95;;
64297;SDS011;50639;53.270;7.956;2023-02-14T00:18:56;38.63;;;20.13;;
64297;SDS011;50639;53.270;7.956;2023-02-14T00:21:28;44.08;;;15.30;;
64297;SDS011;50639;53.270;7.956;2023-02-14T00:23:54;20.90;;;13.45;;
64297;SDS011;50639;53.270;7.956;2023-02-14T00:26:19;28.23;;;16.20;;
64297;SDS011;50639;53.270;7.956;2023-02-14T00:28:45;26.58;;;16.92;;
64297;SDS011;50639;53.270;7.956;2023-02-14T00:31:11;19.13;;;13.13;;
64297;SDS011;50639;53.270;7.956;2023-02-14T00:33:36;26.05;;;16.50;;
64297;SDS011;50639;53.270;7.956;2023-02-14T00:36:02;26.73;;;15.68;;
64297;SDS011;50639;53.270;7.956;2023-02-14T00:38:29;21.25;;;16.38;;
64297;SDS011;50639;53.270;7.956;2023-02-14T00:40:54;23.50;;;12.30;;
64297;SDS011;50639;53.270;7.956;2023-02-14T00:43:20;29.17;;;19.15;;
64297;SDS011;50639;53.270;7.956;2023-02-14T00:45:45;24.00;;;15.18;;
64297;SDS011;50639;53.270;7.956;2023-02-14T00:48:11;22.83;;;15.20;;
64297;SDS011;50639;53.270;7.956;2023-02-14T00:50:37;23.90;;;17.30;;
64297;SDS011;50639;53.270;7.956;2023-02-14T00:53:02;24.55;;;17.33;;
64297;SDS011;50639;53.270;7.956;2023-02-14T00:55:28;160.18;;;23.48;;
64297;SDS011;50639;53.270;7.956;2023-02-14T00:57:53;196.93;;;24.50;;
64297;SDS011;50639;53.270;7.956;2023-02-14T01:00:19;21.42;;;14.15;;
64297;SDS011;50639;53.270;7.956;2023-02-14T01:02:45;25.27;;;17.95;;
64297;SDS011;50639;53.270;7.956;2023-02-14T01:05:10;36.35;;;16.92;;
64297;SDS011;50639;53.270;7.956;2023-02-14T01:07:36;24.45;;;12.38;;
64297;SDS011;50639;53.270;7.956;2023-02-14T01:10:01;21.05;;;12.98;;
64297;SDS011;50639;53.270;7.956;2023-02-14T01:12:28;54.85;;;16.50;;
64297;SDS011;50639;53.270;7.956;2023-02-14T01:14:54;26.42;;;17.00;;
64297;SDS011;50639;53.270;7.956;2023-02-14T01:17:19;28.60;;;17.08;;
64297;SDS011;50639;53.270;7.956;2023-02-14T01:19:46;28.70;;;17.02;;
64297;SDS011;50639;53.270;7.956;2023-02-14T01:22:11;43.90;;;21.48;;
64297;SDS011;50639;53.270;7.956;2023-02-14T01:24:36;62.83;;;22.40;;
64297;SDS011;50639;53.270;7.956;2023-02-14T01:27:02;36.38;;;18.17;;
64297;SDS011;50639;53.270;7.956;2023-02-14T01:29:27;111.65;;;24.30;;
64297;SDS011;50639;53.270;7.956;2023-02-14T01:31:53;34.03;;;16.92;;
64297;SDS011;50639;53.270;7.956;2023-02-14T01:34:18;69.55;;;22.55;;
64297;SDS011;50639;53.270;7.956;2023-02-14T01:36:45;26.67;;;17.03;;
64297;SDS011;50639;53.270;7.956;2023-02-14T01:39:11;27.13;;;16.35;;
64297;SDS011;50639;53.270;7.956;2023-02-14T01:41:38;96.78;;;21.65;;
64297;SDS011;50639;53.270;7.956;2023-02-14T01:44:07;142.65;;;23.00;;
64297;SDS011;50639;53.270;7.956;2023-02-14T01:46:52;164.60;;;21.23;;
64297;SDS011;50639;53.270;7.956;2023-02-14T01:49:21;25.30;;;15.25;;
64297;SDS011;50639;53.270;7.956;2023-02-14T01:51:55;24.17;;;14.52;;
64297;SDS011;50639;53.270;7.956;2023-02-14T01:54:25;57.13;;;17.17;;
64297;SDS011;50639;53.270;7.956;2023-02-14T01:56:54;26.58;;;16.45;;
64297;SDS011;50639;53.270;7.956;2023-02-14T01:59:24;37.33;;;18.88;;
64297;SDS011;50639;53.270;7.956;2023-02-14T02:01:54;289.33;;;29.08;;
64297;SDS011;50639;53.270;7.956;2023-02-14T02:04:21;56.05;;;21.35;;
64297;SDS011;50639;53.270;7.956;2023-02-14T02:07:09;28.42;;;17.73;;
64297;SDS011;50639;53.270;7.956;2023-02-14T02:09:49;27.38;;;15.50;;
64297;SDS011;50639;53.270;7.956;2023-02-14T02:12:18;79.18;;;18.65;;
64297;SDS011;50639;53.270;7.956;2023-02-14T02:14:44;112.03;;;23.67;;
64297;SDS011;50639;53.270;7.956;2023-02-14T02:41:42;28.45;;;17.73;;
64297;SDS011;50639;53.270;7.956;2023-02-14T02:46:54;21.35;;;14.15;;
64297;SDS011;50639;53.270;7.956;2023-02-14T02:49:46;19.40;;;12.15;;
64297;SDS011;50639;53.270;7.956;2023-02-14T02:52:37;24.80;;;17.23;;
64297;SDS011;50639;53.270;7.956;2023-02-14T02:55:37;22.88;;;13.70;;
64297;SDS011;50639;53.270;7.956;2023-02-14T02:58:25;20.88;;;13.60;;
64297;SDS011;50639;53.270;7.956;2023-02-14T03:00:55;20.38;;;13.15;;
64297;SDS011;50639;53.270;7.956;2023-02-14T03:03:23;19.85;;;12.35;;
64297;SDS011;50639;53.270;7.956;2023-02-14T03:06:11;24.15;;;15.52;;
64297;SDS011;50639;53.270;7.956;2023-02-14T03:08:37;20.25;;;12.57;;
64297;SDS011;50639;53.270;7.956;2023-02-14T03:11:02;23.48;;;15.40;;
64297;SDS011;50639;53.270;7.956;2023-02-14T03:21:51;32.50;;;18.30;;
64297;SDS011;50639;53.270;7.956;2023-02-14T03:27:12;28.10;;;15.52;;
64297;SDS011;50639;53.270;7.956;2023-02-14T03:29:52;28.83;;;16.60;;
64297;SDS011;50639;53.270;7.956;2023-02-14T03:32:40;22.73;;;13.88;;
64297;SDS011;50639;53.270;7.956;2023-02-14T03:35:34;24.98;;;15.35;;
64297;SDS011;50639;53.270;7.956;2023-02-14T03:41:01;25.98;;;15.32;;
64297;SDS011;50639;53.270;7.956;2023-02-14T03:43:34;27.77;;;15.23;;
64297;SDS011;50639;53.270;7.956;2023-02-14T03:46:07;27.48;;;16.02;;
64297;SDS011;50639;53.270;7.956;2023-02-14T03:48:38;30.42;;;17.88;;
64297;SDS011;50639;53.270;7.956;2023-02-14T03:51:07;29.27;;;15.95;;
64297;SDS011;50639;53.270;7.956;2023-02-14T03:53:36;28.25;;;17.05;;
64297;SDS011;50639;53.270;7.956;2023-02-14T03:56:17;29.60;;;17.10;;
64297;SDS011;50639;53.270;7.956;2023-02-14T03:58:55;26.42;;;16.23;;
64297;SDS011;50639;53.270;7.956;2023-02-14T04:01:29;32.33;;;18.85;;
64297;SDS011;50639;53.270;7.956;2023-02-14T04:04:00;36.70;;;20.23;;
64297;SDS011;50639;53.270;7.956;2023-02-14T04:06:28;36.88;;;20.00;;
64297;SDS011;50639;53.270;7.956;2023-02-14T04:08:54;26.75;;;16.05;;
64297;SDS011;50639;53.270;7.956;2023-02-14T04:11:19;24.90;;;15.45;;
64297;SDS011;50639;53.270;7.956;2023-02-14T04:13:45;30.60;;;17.10;;
64297;SDS011;50639;53.270;7.956;2023-02-14T04:16:10;32.28;;;17.63;;
64297;SDS011;50639;53.270;7.956;2023-02-14T04:18:36;28.80;;;17.48;;
64297;SDS011;50639;53.270;7.956;2023-02-14T04:21:27;27.83;;;17.45;;
64297;SDS011;50639;53.270;7.956;2023-02-14T04:23:52;28.67;;;17.25;;
64297;SDS011;50639;53.270;7.956;2023-02-14T04:26:18;29.30;;;17.70;;
64297;SDS011;50639;53.270;7.956;2023-02-14T04:28:43;33.53;;;19.20;;
64297;SDS011;50639;53.270;7.956;2023-02-14T04:31:09;29.35;;;18.05;;
64297;SDS011;50639;53.270;7.956;2023-02-14T04:33:35;31.50;;;17.85;;
64297;SDS011;50639;53.270;7.956;2023-02-14T04:36:01;41.53;;;20.50;;
64297;SDS011;50639;53.270;7.956;2023-02-14T04:38:26;30.25;;;16.02;;
64297;SDS011;50639;53.270;7.956;2023-02-14T04:40:51;29.95;;;18.35;;
64297;SDS011;50639;53.270;7.956;2023-02-14T04:43:17;28.20;;;17.80;;
64297;SDS011;50639;53.270;7.956;2023-02-14T04:45:43;27.13;;;16.60;;
64297;SDS011;50639;53.270;7.956;2023-02-14T04:48:08;36.75;;;21.60;;
64297;SDS011;50639;53.270;7.956;2023-02-14T04:50:34;26.15;;;15.98;;
64297;SDS011;50639;53.270;7.956;2023-02-14T04:53:00;30.52;;;18.35;;
64297;SDS011;50639;53.270;7.956;2023-02-14T04:55:25;27.92;;;17.17;;
64297;SDS011;50639;53.270;7.956;2023-02-14T04:57:51;34.78;;;18.92;;
64297;SDS011;50639;53.270;7.956;2023-02-14T05:00:16;28.40;;;17.45;;
64297;SDS011;50639;53.270;7.956;2023-02-14T05:02:42;35.90;;;20.17;;
64297;SDS011;50639;53.270;7.956;2023-02-14T05:05:08;34.50;;;18.65;;
64297;SDS011;50639;53.270;7.956;2023-02-14T05:07:34;32.78;;;18.70;;
64297;SDS011;50639;53.270;7.956;2023-02-14T05:10:00;53.30;;;25.63;;
64297;SDS011;50639;53.270;7.956;2023-02-14T05:12:25;32.42;;;19.60;;
64297;SDS011;50639;53.270;7.956;2023-02-14T05:14:51;31.15;;;19.58;;
64297;SDS011;50639;53.270;7.956;2023-02-14T05:17:16;34.72;;;20.52;;
64297;SDS011;50639;53.270;7.956;2023-02-14T05:19:42;39.58;;;22.52;;
64297;SDS011;50639;53.270;7.956;2023-02-14T05:22:07;30.13;;;17.50;;
64297;SDS011;50639;53.270;7.956;2023-02-14T05:24:33;44.30;;;22.98;;
64297;SDS011;50639;53.270;7.956;2023-02-14T05:26:58;36.22;;;21.52;;
64297;SDS011;50639;53.270;7.956;2023-02-14T05:29:24;28.05;;;16.42;;
64297;SDS011;50639;53.270;7.956;2023-02-14T05:31:49;25.10;;;15.45;;
64297;SDS011;50639;53.270;7.956;2023-02-14T05:34:15;25.92;;;16.80;;
64297;SDS011;50639;53.270;7.956;2023-02-14T05:36:40;33.00;;;18.60;;
64297;SDS011;50639;53.270;7.956;2023-02-14T05:39:06;28.73;;;18.13;;
64297;SDS011;50639;53.270;7.956;2023-02-14T05:41:31;27.25;;;16.63;;
64297;SDS011;50639;53.270;7.956;2023-02-14T05:43:57;24.13;;;15.25;;
64297;SDS011;50639;53.270;7.956;2023-02-14T05:46:22;25.30;;;15.07;;
64297;SDS011;50639;53.270;7.956;2023-02-14T05:48:47;21.17;;;14.05;;
64297;SDS011;50639;53.270;7.956;2023-02-14T05:51:15;24.33;;;15.48;;
64297;SDS011;50639;53.270;7.956;2023-02-14T05:53:41;26.92;;;16.55;;
64297;SDS011;50639;53.270;7.956;2023-02-14T05:56:06;29.25;;;16.67;;
64297;SDS011;50639;53.270;7.956;2023-02-14T05:58:32;29.60;;;18.80;;
64297;SDS011;50639;53.270;7.956;2023-02-14T06:00:58;34.88;;;21.05;;
64297;SDS011;50639;53.270;7.956;2023-02-14T06:03:23;26.05;;;15.60;;
64297;SDS011;50639;53.270;7.956;2023-02-14T06:05:49;35.53;;;21.60;;
64297;SDS011;50639;53.270;7.956;2023-02-14T06:08:15;37.78;;;23.05;;
64297;SDS011;50639;53.270;7.956;2023-02-14T06:10:40;83.55;;;33.92;;
64297;SDS011;50639;53.270;7.956;2023-02-14T06:13:06;28.88;;;19.17;;
64297;SDS011;50639;53.270;7.956;2023-02-14T06:15:36;33.40;;;20.02;;
64297;SDS011;50639;53.270;7.956;2023-02-14T06:18:02;33.70;;;18.92;;
64297;SDS011;50639;53.270;7.956;2023-02-14T06:20:29;33.53;;;19.27;;
64297;SDS011;50639;53.270;7.956;2023-02-14T06:22:55;30.40;;;17.20;;
64297;SDS011;50639;53.270;7.956;2023-02-14T06:25:21;27.35;;;16.83;;
64297;SDS011;50639;53.270;7.956;2023-02-14T06:27:47;22.45;;;14.13;;
64297;SDS011;50639;53.270;7.956;2023-02-14T06:30:13;28.05;;;18.27;;
64297;SDS011;50639;53.270;7.956;2023-02-14T06:32:40;36.88;;;18.85;;
64297;SDS011;50639;53.270;7.956;2023-02-14T06:35:05;27.67;;;17.23;;
64297;SDS011;50639;53.270;7.956;2023-02-14T06:37:32;27.88;;;16.65;;
64297;SDS011;50639;53.270;7.956;2023-02-14T06:39:57;31.65;;;17.60;;
64297;SDS011;50639;53.270;7.956;2023-02-14T06:42:23;31.30;;;17.63;;
64297;SDS011;50639;53.270;7.956;2023-02-14T06:44:48;31.27;;;20.25;;
64297;SDS011;50639;53.270;7.956;2023-02-14T06:47:14;24.25;;;15.40;;
64297;SDS011;50639;53.270;7.956;2023-02-14T06:49:40;39.03;;;21.35;;
64297;SDS011;50639;53.270;7.956;2023-02-14T06:52:06;26.60;;;17.08;;
64297;SDS011;50639;53.270;7.956;2023-02-14T06:54:31;28.50;;;18.05;;
64297;SDS011;50639;53.270;7.956;2023-02-14T06:56:57;33.15;;;20.02;;
64297;SDS011;50639;53.270;7.956;2023-02-14T06:59:22;41.88;;;22.73;;
64297;SDS011;50639;53.270;7.956;2023-02-14T07:01:48;31.35;;;19.50;;
64297;SDS011;50639;53.270;7.956;2023-02-14T07:04:13;34.25;;;21.30;;
64297;SDS011;50639;53.270;7.956;2023-02-14T07:06:39;36.58;;;20.50;;
64297;SDS011;50639;53.270;7.956;2023-02-14T07:09:05;31.58;;;19.75;;
64297;SDS011;50639;53.270;7.956;2023-02-14T07:11:31;32.25;;;19.63;;
64297;SDS011;50639;53.270;7.956;2023-02-14T07:13:56;33.13;;;19.55;;
64297;SDS011;50639;53.270;7.956;2023-02-14T07:16:22;36.20;;;20.15;;
64297;SDS011;50639;53.270;7.956;2023-02-14T07:18:47;32.95;;;20.17;;
64297;SDS011;50639;53.270;7.956;2023-02-14T07:21:13;31.00;;;19.45;;
64297;SDS011;50639;53.270;7.956;2023-02-14T07:23:39;42.00;;;22.45;;
64297;SDS011;50639;53.270;7.956;2023-02-14T07:26:04;35.60;;;22.27;;
64297;SDS011;50639;53.270;7.956;2023-02-14T07:28:30;34.50;;;20.40;;
64297;SDS011;50639;53.270;7.956;2023-02-14T07:30:59;44.55;;;24.35;;
64297;SDS011;50639;53.270;7.956;2023-02-14T07:33:25;38.92;;;23.88;;
64297;SDS011;50639;53.270;7.956;2023-02-14T07:35:51;47.53;;;25.33;;
64297;SDS011;50639;53.270;7.956;2023-02-14T07:38:16;42.00;;;24.08;;
64297;SDS011;50639;53.270;7.956;2023-02-14T07:40:41;43.92;;;23.65;;
64297;SDS011;50639;53.270;7.956;2023-02-14T07:43:07;32.08;;;18.85;;
64297;SDS011;50639;53.270;7.956;2023-02-14T07:45:33;38.03;;;24.13;;
64297;SDS011;50639;53.270;7.956;2023-02-14T07:47:58;32.35;;;21.50;;
64297;SDS011;50639;53.270;7.956;2023-02-14T07:50:26;36.83;;;23.42;;
64297;SDS011;50639;53.270;7.956;2023-02-14T07:52:52;32.85;;;19.77;;
64297;SDS011;50639;53.270;7.956;2023-02-14T07:55:19;49.10;;;25.13;;
64297;SDS011;50639;53.270;7.956;2023-02-14T07:57:47;41.78;;;23.50;;
64297;SDS011;50639;53.270;7.956;2023-02-14T08:00:13;37.15;;;22.48;;
64297;SDS011;50639;53.270;7.956;2023-02-14T08:02:39;34.72;;;22.10;;
64297;SDS011;50639;53.270;7.956;2023-02-14T08:05:05;40.22;;;23.83;;
64297;SDS011;50639;53.270;7.956;2023-02-14T08:07:30;33.65;;;21.60;;
64297;SDS011;50639;53.270;7.956;2023-02-14T08:09:56;36.70;;;22.85;;
64297;SDS011;50639;53.270;7.956;2023-02-14T08:12:21;33.75;;;20.48;;
64297;SDS011;50639;53.270;7.956;2023-02-14T08:15:05;35.15;;;21.58;;
64297;SDS011;50639;53.270;7.956;2023-02-14T08:17:50;34.67;;;20.48;;
64297;SDS011;50639;53.270;7.956;2023-02-14T08:20:15;35.28;;;20.23;;
64297;SDS011;50639;53.270;7.956;2023-02-14T08:22:41;32.53;;;20.45;;
64297;SDS011;50639;53.270;7.956;2023-02-14T08:25:06;33.50;;;21.35;;
64297;SDS011;50639;53.270;7.956;2023-02-14T08:27:32;49.22;;;28.65;;
64297;SDS011;50639;53.270;7.956;2023-02-14T08:29:57;38.60;;;23.30;;
64297;SDS011;50639;53.270;7.956;2023-02-14T08:32:23;41.67;;;24.35;;
64297;SDS011;50639;53.270;7.956;2023-02-14T08:34:48;43.30;;;25.85;;
64297;SDS011;50639;53.270;7.956;2023-02-14T08:37:14;39.40;;;22.92;;
64297;SDS011;50639;53.270;7.956;2023-02-14T08:39:39;46.90;;;26.08;;
64297;SDS011;50639;53.270;7.956;2023-02-14T08:42:04;46.42;;;27.65;;
64297;SDS011;50639;53.270;7.956;2023-02-14T08:44:30;36.63;;;22.10;;
64297;SDS011;50639;53.270;7.956;2023-02-14T08:46:56;41.55;;;24.63;;
64297;SDS011;50639;53.270;7.956;2023-02-14T08:49:21;40.33;;;25.50;;
64297;SDS011;50639;53.270;7.956;2023-02-14T08:51:46;45.20;;;26.83;;
64297;SDS011;50639;53.270;7.956;2023-02-14T08:54:12;38.92;;;23.88;;
64297;SDS011;50639;53.270;7.956;2023-02-14T08:56:37;39.22;;;24.25;;
64297;SDS011;50639;53.270;7.956;2023-02-14T08:59:04;40.37;;;25.70;;
64297;SDS011;50639;53.270;7.956;2023-02-14T09:01:30;45.38;;;27.15;;
64297;SDS011;50639;53.270;7.956;2023-02-14T09:03:55;36.83;;;24.48;;
64297;SDS011;50639;53.270;7.956;2023-02-14T09:06:22;33.22;;;22.90;;
64297;SDS011;50639;53.270;7.956;2023-02-14T09:08:47;37.83;;;24.38;;
64297;SDS011;50639;53.270;7.956;2023-02-14T09:11:14;35.00;;;24.70;;
64297;SDS011;50639;53.270;7.956;2023-02-14T09:13:46;43.47;;;26.50;;
64297;SDS011;50639;53.270;7.956;2023-02-14T09:16:13;36.20;;;24.27;;
64297;SDS011;50639;53.270;7.956;2023-02-14T09:18:41;40.63;;;25.27;;
64297;SDS011;50639;53.270;7.956;2023-02-14T09:21:07;40.17;;;25.30;;
64297;SDS011;50639;53.270;7.956;2023-02-14T09:26:18;39.47;;;23.90;;
64297;SDS011;50639;53.270;7.956;2023-02-14T09:28:44;43.22;;;25.42;;
64297;SDS011;50639;53.270;7.956;2023-02-14T09:31:12;44.88;;;28.85;;
64297;SDS011;50639;53.270;7.956;2023-02-14T09:33:42;61.63;;;31.98;;
64297;SDS011;50639;53.270;7.956;2023-02-14T09:36:27;43.13;;;27.48;;
64297;SDS011;50639;53.270;7.956;2023-02-14T09:38:52;52.35;;;31.90;;
64297;SDS011;50639;53.270;7.956;2023-02-14T09:43:59;41.85;;;25.42;;
64297;SDS011;50639;53.270;7.956;2023-02-14T09:46:29;38.28;;;24.60;;
64297;SDS011;50639;53.270;7.956;2023-02-14T09:49:21;36.83;;;23.65;;
64297;SDS011;50639;53.270;7.956;2023-02-14T09:51:55;42.63;;;23.17;;
64297;SDS011;50639;53.270;7.956;2023-02-14T09:54:26;37.85;;;24.50;;
64297;SDS011;50639;53.270;7.956;2023-02-14T09:56:56;32.50;;;20.90;;
64297;SDS011;50639;53.270;7.956;2023-02-14T09:59:34;33.53;;;20.02;;
64297;SDS011;50639;53.270;7.956;2023-02-14T10:10:49;33.53;;;22.23;;
64297;SDS011;50639;53.270;7.956;2023-02-14T10:13:30;30.33;;;20.23;;
64297;SDS011;50639;53.270;7.956;2023-02-14T10:21:50;26.42;;;18.60;;
64297;SDS011;50639;53.270;7.956;2023-02-14T10:29:47;24.02;;;17.80;;
64297;SDS011;50639;53.270;7.956;2023-02-14T10:32:13;22.27;;;15.77;;
64297;SDS011;50639;53.270;7.956;2023-02-14T10:34:46;20.75;;;15.18;;
64297;SDS011;50639;53.270;7.956;2023-02-14T10:40:14;28.08;;;19.20;;
64297;SDS011;50639;53.270;7.956;2023-02-14T10:45:46;26.33;;;20.65;;
64297;SDS011;50639;53.270;7.956;2023-02-14T10:53:57;24.60;;;18.15;;
64297;SDS011;50639;53.270;7.956;2023-02-14T10:56:34;23.10;;;16.95;;
64297;SDS011;50639;53.270;7.956;2023-02-14T10:59:14;25.60;;;19.20;;
64297;SDS011;50639;53.270;7.956;2023-02-14T11:01:49;21.17;;;16.77;;
64297;SDS011;50639;53.270;7.956;2023-02-14T11:04:16;25.00;;;17.23;;
64297;SDS011;50639;53.270;7.956;2023-02-14T11:06:45;28.90;;;20.60;;
64297;SDS011;50639;53.270;7.956;2023-02-14T11:09:13;22.15;;;16.23;;
64297;SDS011;50639;53.270;7.956;2023-02-14T11:11:42;26.98;;;19.40;;
64297;SDS011;50639;53.270;7.956;2023-02-14T11:14:20;23.55;;;18.55;;
64297;SDS011;50639;53.270;7.956;2023-02-14T11:16:48;22.23;;;16.10;;
64297;SDS011;50639;53.270;7.956;2023-02-14T11:19:27;22.20;;;17.40;;
64297;SDS011;50639;53.270;7.956;2023-02-14T11:21:55;20.70;;;15.90;;
64297;SDS011;50639;53.270;7.956;2023-02-14T11:26:50;24.50;;;18.23;;
64297;SDS011;50639;53.270;7.956;2023-02-14T11:29:30;23.92;;;17.75;;
64297;SDS011;50639;53.270;7.956;2023-02-14T11:32:32;26.15;;;19.13;;
64297;SDS011;50639;53.270;7.956;2023-02-14T11:35:02;22.65;;;18.08;;
64297;SDS011;50639;53.270;7.956;2023-02-14T11:38:20;24.70;;;18.13;;
64297;SDS011;50639;53.270;7.956;2023-02-14T11:48:08;23.30;;;18.13;;
64297;SDS011;50639;53.270;7.956;2023-02-14T11:50:39;21.92;;;16.85;;
64297;SDS011;50639;53.270;7.956;2023-02-14T11:53:07;21.92;;;17.10;;
64297;SDS011;50639;53.270;7.956;2023-02-14T11:55:36;21.15;;;16.08;;
64297;SDS011;50639;53.270;7.956;2023-02-14T11:58:02;22.23;;;17.23;;
64297;SDS011;50639;53.270;7.956;2023-02-14T12:00:31;23.65;;;17.05;;
64297;SDS011;50639;53.270;7.956;2023-02-14T12:02:58;24.10;;;17.80;;
64297;SDS011;50639;53.270;7.956;2023-02-14T12:05:45;21.63;;;15.52;;
64297;SDS011;50639;53.270;7.956;2023-02-14T12:08:14;20.85;;;16.83;;
64297;SDS011;50639;53.270;7.956;2023-02-14T12:10:59;21.48;;;16.30;;
64297;SDS011;50639;53.270;7.956;2023-02-14T12:13:27;20.38;;;16.83;;
64297;SDS011;50639;53.270;7.956;2023-02-14T12:15:53;18.08;;;14.25;;
64297;SDS011;50639;53.270;7.956;2023-02-14T12:29:34;19.60;;;15.32;;
64297;SDS011;50639;53.270;7.956;2023-02-14T12:34:46;18.45;;;14.43;;
64297;SDS011;50639;53.270;7.956;2023-02-14T12:37:18;18.27;;;14.25;;
64297;SDS011;50639;53.270;7.956;2023-02-14T12:42:46;18.35;;;14.88;;
64297;SDS011;50639;53.270;7.956;2023-02-14T12:51:15;18.05;;;13.82;;
64297;SDS011;50639;53.270;7.956;2023-02-14T12:56:48;20.30;;;14.13;;
64297;SDS011;50639;53.270;7.956;2023-02-14T13:05:04;17.92;;;14.27;;
64297;SDS011;50639;53.270;7.956;2023-02-14T13:08:02;18.25;;;14.60;;
64297;SDS011;50639;53.270;7.956;2023-02-14T13:16:03;21.05;;;14.90;;
64297;SDS011;50639;53.270;7.956;2023-02-14T13:21:28;17.23;;;13.88;;
64297;SDS011;50639;53.270;7.956;2023-02-14T13:26:52;18.55;;;14.05;;
64297;SDS011;50639;53.270;7.956;2023-02-14T13:29:22;19.70;;;14.70;;
64297;SDS011;50639;53.270;7.956;2023-02-14T13:31:55;22.02;;;15.15;;
64297;SDS011;50639;53.270;7.956;2023-02-14T13:34:38;20.15;;;14.80;;
64297;SDS011;50639;53.270;7.956;2023-02-14T13:37:09;17.77;;;14.63;;
64297;SDS011;50639;53.270;7.956;2023-02-14T13:39:37;21.77;;;15.20;;
64297;SDS011;50639;53.270;7.956;2023-02-14T13:42:05;21.63;;;15.35;;
64297;SDS011;50639;53.270;7.956;2023-02-14T13:47:43;22.10;;;16.23;;
64297;SDS011;50639;53.270;7.956;2023-02-14T13:50:02;19.88;;;15.20;;
64297;SDS011;50639;53.270;7.956;2023-02-14T13:52:45;21.27;;;15.15;;
64297;SDS011;50639;53.270;7.956;2023-02-14T13:55:15;20.70;;;15.18;;
64297;SDS011;50639;53.270;7.956;2023-02-14T13:57:59;23.05;;;17.50;;
64297;SDS011;50639;53.270;7.956;2023-02-14T14:00:34;21.15;;;14.73;;
64297;SDS011;50639;53.270;7.956;2023-02-14T14:03:00;20.38;;;16.42;;
64297;SDS011;50639;53.270;7.956;2023-02-14T14:10:49;20.80;;;15.85;;
64297;SDS011;50639;53.270;7.956;2023-02-14T14:21:32;20.85;;;15.48;;
64297;SDS011;50639;53.270;7.956;2023-02-14T14:26:51;18.20;;;14.50;;
64297;SDS011;50639;53.270;7.956;2023-02-14T14:32:06;20.27;;;15.02;;
64297;SDS011;50639;53.270;7.956;2023-02-14T14:34:33;24.08;;;15.43;;
64297;SDS011;50639;53.270;7.956;2023-02-14T14:37:05;18.48;;;13.75;;
64297;SDS011;50639;53.270;7.956;2023-02-14T14:39:39;18.10;;;14.50;;
64297;SDS011;50639;53.270;7.956;2023-02-14T14:42:08;26.02;;;18.50;;
64297;SDS011;50639;53.270;7.956;2023-02-14T14:44:44;21.83;;;16.40;;
64297;SDS011;50639;53.270;7.956;2023-02-14T14:47:16;19.77;;;14.95;;
64297;SDS011;50639;53.270;7.956;2023-02-14T14:49:46;19.17;;;13.63;;
64297;SDS011;50639;53.270;7.956;2023-02-14T14:52:16;21.30;;;15.05;;
64297;SDS011;50639;53.270;7.956;2023-02-14T14:54:50;18.35;;;14.10;;
64297;SDS011;50639;53.270;7.956;2023-02-14T14:57:16;19.23;;;14.20;;
64297;SDS011;50639;53.270;7.956;2023-02-14T14:59:42;19.40;;;15.48;;
64297;SDS011;50639;53.270;7.956;2023-02-14T15:02:21;19.17;;;12.68;;
64297;SDS011;50639;53.270;7.956;2023-02-14T15:04:50;18.33;;;14.75;;
64297;SDS011;50639;53.270;7.956;2023-02-14T15:07:26;19.83;;;14.95;;
64297;SDS011;50639;53.270;7.956;2023-02-14T15:09:56;19.15;;;14.07;;
64297;SDS011;50639;53.270;7.956;2023-02-14T15:12:22;20.27;;;14.43;;
64297;SDS011;50639;53.270;7.956;2023-02-14T15:15:11;18.33;;;14.93;;
64297;SDS011;50639;53.270;7.956;2023-02-14T15:17:39;17.08;;;12.90;;
64297;SDS011;50639;53.270;7.956;2023-02-14T15:20:06;22.52;;;15.05;;
64297;SDS011;50639;53.270;7.956;2023-02-14T15:22:41;19.15;;;13.70;;
64297;SDS011;50639;53.270;7.956;2023-02-14T15:25:10;20.33;;;14.55;;
64297;SDS011;50639;53.270;7.956;2023-02-14T15:27:41;19.73;;;13.77;;
64297;SDS011;50639;53.270;7.956;2023-02-14T15:32:48;19.65;;;14.68;;
64297;SDS011;50639;53.270;7.956;2023-02-14T15:35:15;16.83;;;14.27;;
64297;SDS011;50639;53.270;7.956;2023-02-14T15:37:44;18.48;;;14.55;;
64297;SDS011;50639;53.270;7.956;2023-02-14T15:40:17;19.85;;;15.35;;
64297;SDS011;50639;53.270;7.956;2023-02-14T15:42:47;22.13;;;17.90;;
64297;SDS011;50639;53.270;7.956;2023-02-14T15:45:21;22.15;;;15.43;;
64297;SDS011;50639;53.270;7.956;2023-02-14T15:47:48;23.27;;;15.18;;
64297;SDS011;50639;53.270;7.956;2023-02-14T15:50:23;16.17;;;12.63;;
64297;SDS011;50639;53.270;7.956;2023-02-14T15:52:52;18.35;;;13.52;;
64297;SDS011;50639;53.270;7.956;2023-02-14T15:55:24;17.80;;;13.05;;
64297;SDS011;50639;53.270;7.956;2023-02-14T15:58:02;18.08;;;13.70;;
64297;SDS011;50639;53.270;7.956;2023-02-14T16:00:39;17.58;;;13.95;;
64297;SDS011;50639;53.270;7.956;2023-02-14T16:03:09;19.55;;;14.65;;
64297;SDS011;50639;53.270;7.956;2023-02-14T16:05:38;19.27;;;13.48;;
64297;SDS011;50639;53.270;7.956;2023-02-14T16:10:59;17.23;;;12.52;;
64297;SDS011;50639;53.270;7.956;2023-02-14T16:13:32;17.73;;;12.90;;
64297;SDS011;50639;53.270;7.956;2023-02-14T16:16:00;21.05;;;14.70;;
64297;SDS011;50639;53.270;7.956;2023-02-14T16:18:31;18.17;;;13.02;;
64297;SDS011;50639;53.270;7.956;2023-02-14T16:21:08;18.05;;;12.07;;
64297;SDS011;50639;53.270;7.956;2023-02-14T16:23:37;21.05;;;14.43;;
64297;SDS011;50639;53.270;7.956;2023-02-14T16:26:04;20.00;;;13.75;;
64297;SDS011;50639;53.270;7.956;2023-02-14T16:28:31;18.60;;;14.10;;
64297;SDS011;50639;53.270;7.956;2023-02-14T16:30:58;16.33;;;12.55;;
64297;SDS011;50639;53.270;7.956;2023-02-14T16:33:31;17.88;;;12.13;;
64297;SDS011;50639;53.270;7.956;2023-02-14T16:38:34;32.20;;;22.90;;
64297;SDS011;50639;53.270;7.956;2023-02-14T16:41:05;22.40;;;15.93;;
64297;SDS011;50639;53.270;7.956;2023-02-14T16:43:31;20.00;;;14.65;;
64297;SDS011;50639;53.270;7.956;2023-02-14T16:45:56;20.25;;;14.77;;
64297;SDS011;50639;53.270;7.956;2023-02-14T16:48:22;18.92;;;13.60;;
64297;SDS011;50639;53.270;7.956;2023-02-14T16:50:47;16.98;;;11.55;;
64297;SDS011;50639;53.270;7.956;2023-02-14T16:53:21;21.40;;;14.13;;
64297;SDS011;50639;53.270;7.956;2023-02-14T16:55:51;22.40;;;13.55;;
64297;SDS011;50639;53.270;7.956;2023-02-14T16:58:18;18.08;;;13.68;;
64297;SDS011;50639;53.270;7.956;2023-02-14T17:00:45;19.73;;;13.88;;
64297;SDS011;50639;53.270;7.956;2023-02-14T17:03:10;17.98;;;13.05;;
64297;SDS011;50639;53.270;7.956;2023-02-14T17:05:36;19.50;;;14.20;;
64297;SDS011;50639;53.270;7.956;2023-02-14T17:08:04;28.52;;;17.52;;
64297;SDS011;50639;53.270;7.956;2023-02-14T17:10:32;33.45;;;22.30;;
64297;SDS011;50639;53.270;7.956;2023-02-14T17:12:59;25.77;;;17.75;;
64297;SDS011;50639;53.270;7.956;2023-02-14T17:15:28;46.35;;;36.75;;